Hauptseite
METAR-TAF:

METAR-TAF

Flughäfen :

Flughafen Chōfu

Chofu, Japan

Breite: 35-40N, Länge: 139-32E, Höhe: 41 m

Beobachtung

Neuester Wetterbericht von vor 54 Minuten, um 02:00 UTC
Wind 9 kt aus Süd, variierte zwischen Südost und Südwest
Temperatur 24°C
Luftfeuchtigkeit 50%
Luftdruck 1018 hPa
Sichtweite 10 km oder mehr
Leicht bewölkt in der Höhe von 4500 ft
Durchbrochene Bewölkung in der Höhe von 18000 ft
Durchbrochene Bewölkung

METAR: RJTF 280200Z 17009KT 130V230 9999 FEW045 BKN180 BKN/// 24/13 Q1018

Zeit: 11:54 (02:54 UTC)


TAF: fehlend

Wetterbeobachtungen und Prognosen von mehr als 4000 Flughäfen (METAR und TAF Bericht).

Die verfügbaren Stationen werden durch gelbe und rote Markierungen auf der Karte dargestellt.

Führen Sie die Maus auf sie, um den Namen der Station zu sehen.

Darauf klicken, um die Beobachtung von Wetterbeobachtungen und Prognosen zu sehen.

Um die Karte zu ändern : klicken Sie auf den grünen Tasten mit einem schwarzen Kreuz Zum Vergrößern, auf den grünen Button mit einem Gedankenstrich zu verkleinern, oder auf die grünen Pfeile für benachbarte Karten.


METAR-TAF: